Cashmere, WA (98815)

4:36 AM PDT on September 17, 2014 (GMT -0700)
Sunnyslope | Change Station
CLOSE
Current Station
Personal Weather Station
Location: Wenatchee, WA
Elevation: 1168 ft
Nearby Weather Stations

Elev 1168 ft 47.49 °N, 120.36 °W | Updated 12 minutes ago

Mostly Cloudy
Mostly Cloudy
69.3 °F
Feels Like 69.3 °F
N
8.3
Wind Variable Wind from NNE

Today
High -- | Low -- °F
--% Chance of Precip.
Yesterday
High -- | Low -- °F
Precip. -- in
6:42 AM 7:09 PM
Last Quarter, 37% visible
Pressure 29.74 in
Visibility 10.0 miles
Clouds Clear
Dew Point 46 °F
Humidity 43%
Rainfall 0.00 in
Snow Depth 0 in , 1 in , 0 in
UV 0 out of 12
Pollen 2.80 out of 12
Air Quality Not available.
Flu Activity Not available.
METAR KEAT 171055Z AUTO 24008KT 10SM CLR 20/08 A2976 RMK AO2 SLP069 T02000078

More Conditions Fewer Conditions

Pressure 29.74 in
Visibility 10.0 miles
Clouds Clear
Dew Point 46 °F
Humidity 43%
Rainfall 0.00 in
Snow Depth 0 in , 1 in , 0 in
UV 0 out of 12
Pollen 2.80 out of 12
Air Quality Not available.
Flu Activity Not available.
METAR KEAT 171055Z AUTO 24008KT 10SM CLR 20/08 A2976 RMK AO2 SLP069 T02000078

More Conditions Fewer Conditions

10-Day Weather Forecast

Almanac

Astronomy

Sep. 17, 2014 Rise Set
Actual Time 6:42 AM PDT 7:09 PM PDT
Civil Twilight 6:11 AM PDT 7:40 PM PDT
Nautical Twilight 5:34 AM PDT 8:16 PM PDT
Astronomical Twilight 4:56 AM PDT 8:54 PM PDT
Moon 12:28 AM PDT 3:40 PM PDT
Length of Visible Light 13h 29m
Length of Day
12h 27m
Tomorrow will be 3m 23s shorter.
Last Quarter, 37% of the Moon is Illuminated
Today
Last Quarter
Sep 24
New
Oct 1
First Quarter
Oct 8
Full
Oct 15
Last Quarter

Today's Extremes

State Highs State Lows

Community

WunderPhotos

Upload Photos

1,754,003 photos uploaded!

Nearby

Snow Depth

Station Depth Elevation
Park Creek Ridge 0 in 4600 ft
Surprise Lakes 1 in 4250 ft
Touchet 0 in 5530 ft
Fish Lake 0 in 3371 ft
Mount Gardner 0 in 3000 ft

Earthquake Activity

City Distance Mag. Time & Date
Morton, Washington 122 miles 3.0 5:43 AM PDT
2014-09-16
Minimum magnitude displayed is 2.5.

Coastal Water Temperatures

Place Temperature
No Stations Reporting

Nearby Weather Stations